Time;durP1;ratioP1;P1;durP2;ratioP2;P2;SDS_P1;SDS_P2;PMS_P1;PMS_P2;Temp;Humidity;BMP_temperature;BMP_pressure;BME280_temperature;BME280_humidity;BME280_pressure;Samples;Min_cycle;Max_cycle;Signal;HPM_P1;HPM_P2
2023/07/26 00:01:42;;;;;;;5.20;2.15;;;11.60;99.90;;;;;;5013583;28;20048;-75
2023/07/26 00:04:08;;;;;;;4.85;2.90;;;11.70;99.90;;;;;;5014246;28;20401;-74
2023/07/26 00:06:34;;;;;;;5.22;2.47;;;11.60;99.90;;;;;;4996537;28;20584;-74
2023/07/26 00:09:00;;;;;;;3.72;2.55;;;11.60;99.90;;;;;;5012817;28;20142;-74
2023/07/26 00:11:26;;;;;;;3.70;2.60;;;11.70;99.90;;;;;;5012808;28;20445;-74
2023/07/26 00:13:51;;;;;;;4.15;2.88;;;11.70;99.90;;;;;;5013650;28;20083;-74
2023/07/26 00:16:17;;;;;;;5.47;2.80;;;11.70;99.90;;;;;;5013887;28;20045;-74
2023/07/26 00:18:43;;;;;;;3.92;2.47;;;11.70;99.90;;;;;;5013863;28;20099;-74
2023/07/26 00:21:09;;;;;;;3.50;2.35;;;11.70;99.90;;;;;;5013611;28;20386;-74
2023/07/26 00:23:35;;;;;;;4.40;2.90;;;11.70;99.90;;;;;;4996623;28;20364;-74
2023/07/26 00:26:01;;;;;;;3.85;2.63;;;11.60;99.90;;;;;;5013608;28;20048;-74
2023/07/26 00:28:26;;;;;;;4.63;2.75;;;11.70;99.90;;;;;;5013340;28;20479;-74
2023/07/26 00:30:52;;;;;;;3.58;2.53;;;11.70;99.90;;;;;;5013301;28;20049;-74
2023/07/26 00:33:18;;;;;;;3.53;2.58;;;11.70;99.90;;;;;;5013483;28;20375;-74
2023/07/26 00:35:44;;;;;;;3.60;2.30;;;11.70;99.90;;;;;;5013402;28;20056;-75
2023/07/26 00:38:10;;;;;;;4.18;2.60;;;11.70;99.90;;;;;;5013328;28;20042;-75
2023/07/26 00:40:36;;;;;;;4.75;2.80;;;11.70;99.90;;;;;;5013560;28;20049;-75
2023/07/26 00:43:03;;;;;;;3.60;2.28;;;11.70;99.90;;;;;;5012470;28;20124;-75
2023/07/26 00:45:30;;;;;;;4.38;2.33;;;11.70;99.90;;;;;;5012348;28;20038;-75
2023/07/26 00:47:57;;;;;;;4.57;2.45;;;11.70;99.90;;;;;;5012621;28;20529;-75
2023/07/26 00:50:23;;;;;;;4.25;2.22;;;11.70;99.90;;;;;;5012873;28;20064;-74
2023/07/26 00:52:49;;;;;;;5.53;2.33;;;11.70;99.90;;;;;;5012354;28;20505;-75
2023/07/26 00:55:15;;;;;;;3.85;2.38;;;11.60;99.90;;;;;;5012681;28;20058;-74
2023/07/26 00:57:42;;;;;;;3.65;2.28;;;11.60;99.90;;;;;;5012116;28;20041;-74
2023/07/26 01:00:09;;;;;;;3.53;2.50;;;11.60;99.90;;;;;;5012653;28;20139;-74
2023/07/26 01:02:36;;;;;;;4.75;2.40;;;11.60;99.90;;;;;;5012955;28;20383;-74
2023/07/26 01:05:03;;;;;;;4.18;2.17;;;11.60;99.90;;;;;;5011739;28;20080;-74
2023/07/26 01:07:31;;;;;;;4.18;2.35;;;11.60;99.90;;;;;;5012082;28;20542;-74
2023/07/26 01:10:20;;;;;;;5.18;2.60;;;11.60;99.90;;;;;;4995875;28;20045;-74
2023/07/26 01:13:17;;;;;;;4.60;2.53;;;11.70;99.90;;;;;;5012850;28;20038;-75
2023/07/26 01:15:46;;;;;;;4.85;2.40;;;11.60;99.90;;;;;;4994397;28;20125;-75
2023/07/26 01:18:14;;;;;;;4.50;2.30;;;11.70;99.90;;;;;;5013094;28;20054;-75
2023/07/26 01:20:40;;;;;;;3.33;2.28;;;11.60;99.90;;;;;;5012021;28;20041;-75
2023/07/26 01:23:07;;;;;;;4.70;2.50;;;11.70;99.90;;;;;;5012128;28;20441;-74
2023/07/26 01:25:33;;;;;;;3.75;2.25;;;11.70;99.90;;;;;;5011678;28;20124;-74
2023/07/26 01:27:59;;;;;;;4.28;2.72;;;11.70;99.90;;;;;;5013200;28;20068;-74
2023/07/26 01:30:30;;;;;;;4.15;2.42;;;11.60;99.90;;;;;;4994493;28;20046;-74
2023/07/26 01:32:59;;;;;;;3.75;2.47;;;11.70;99.90;;;;;;5011973;28;20426;-73
2023/07/26 01:35:26;;;;;;;4.22;2.60;;;11.70;99.90;;;;;;5012607;28;20052;-73
2023/07/26 01:37:54;;;;;;;3.72;2.80;;;11.70;99.90;;;;;;5012987;28;20050;-73
2023/07/26 01:40:21;;;;;;;4.80;2.75;;;11.80;99.90;;;;;;5012942;28;20038;-74
2023/07/26 01:42:48;;;;;;;3.88;2.80;;;11.70;99.90;;;;;;5011853;28;20497;-74
2023/07/26 01:45:13;;;;;;;4.50;2.65;;;11.70;99.90;;;;;;5012885;28;20073;-74
2023/07/26 01:47:39;;;;;;;4.15;2.80;;;11.80;99.90;;;;;;5012876;28;20449;-74
2023/07/26 01:50:06;;;;;;;3.60;2.70;;;11.80;99.90;;;;;;5013092;28;20088;-74
2023/07/26 01:52:31;;;;;;;5.32;2.83;;;11.80;99.90;;;;;;5012398;28;20478;-74
2023/07/26 01:54:57;;;;;;;5.88;2.95;;;11.80;99.90;;;;;;5011518;28;20038;-74
2023/07/26 01:57:25;;;;;;;4.50;3.22;;;11.80;99.90;;;;;;5012731;28;20544;-73
2023/07/26 01:59:54;;;;;;;4.38;3.15;;;11.80;99.90;;;;;;5012474;28;20045;-74
2023/07/26 02:02:20;;;;;;;4.40;3.25;;;11.90;99.90;;;;;;5012588;28;20065;-73
2023/07/26 02:04:47;;;;;;;4.45;3.08;;;11.90;99.90;;;;;;5013514;28;20057;-74
2023/07/26 02:07:12;;;;;;;4.80;3.13;;;11.80;99.90;;;;;;5016143;28;20096;-73
2023/07/26 02:09:38;;;;;;;4.88;3.28;;;11.80;99.90;;;;;;5016103;28;20075;-73
2023/07/26 02:12:04;;;;;;;5.22;3.20;;;11.80;99.90;;;;;;5016292;28;20046;-75
2023/07/26 02:14:30;;;;;;;4.85;3.08;;;11.70;99.90;;;;;;5014963;28;20383;-73
2023/07/26 02:16:56;;;;;;;5.35;3.25;;;11.70;99.90;;;;;;5016081;28;20045;-73
2023/07/26 02:19:22;;;;;;;5.28;3.47;;;11.70;99.90;;;;;;5015643;28;20050;-73
2023/07/26 02:21:47;;;;;;;5.38;3.53;;;11.70;99.90;;;;;;5015751;28;20080;-73
2023/07/26 02:24:13;;;;;;;4.20;3.40;;;11.70;99.90;;;;;;5015089;28;20137;-73
2023/07/26 02:26:39;;;;;;;4.50;3.50;;;11.60;99.90;;;;;;5014662;28;20044;-72
2023/07/26 02:29:05;;;;;;;5.32;3.63;;;11.60;99.90;;;;;;5014454;28;20072;-72
2023/07/26 02:31:31;;;;;;;5.95;3.97;;;11.60;99.90;;;;;;5014077;28;20042;-72
2023/07/26 02:33:56;;;;;;;5.47;3.50;;;11.60;99.90;;;;;;5014861;28;20081;-73
2023/07/26 02:36:23;;;;;;;5.15;3.65;;;11.60;99.90;;;;;;5015665;28;20160;-73
2023/07/26 02:38:49;;;;;;;4.85;3.50;;;11.50;99.90;;;;;;5015313;28;20042;-73
2023/07/26 02:41:15;;;;;;;5.30;3.75;;;11.50;99.90;;;;;;5015457;28;20430;-74
2023/07/26 02:43:40;;;;;;;5.47;3.65;;;11.40;99.90;;;;;;5015435;28;20048;-74
2023/07/26 02:46:06;;;;;;;5.50;3.35;;;11.40;99.90;;;;;;5014429;28;20038;-74
2023/07/26 02:48:32;;;;;;;5.32;3.70;;;11.40;99.90;;;;;;5014211;28;20099;-74
2023/07/26 02:50:58;;;;;;;7.47;4.20;;;11.40;99.90;;;;;;5014251;28;20093;-75
2023/07/26 02:53:23;;;;;;;5.60;4.15;;;11.40;99.90;;;;;;5013907;28;20069;-74
2023/07/26 02:55:49;;;;;;;6.35;4.05;;;11.40;99.90;;;;;;4997960;28;20500;-73
2023/07/26 02:58:15;;;;;;;5.45;3.92;;;11.40;99.90;;;;;;5014160;28;20044;-74
2023/07/26 03:00:41;;;;;;;5.70;4.13;;;11.30;99.90;;;;;;5014540;28;20508;-73
2023/07/26 03:03:07;;;;;;;6.85;4.60;;;11.30;99.90;;;;;;5013598;28;20137;-72
2023/07/26 03:05:35;;;;;;;5.88;4.35;;;11.30;99.90;;;;;;5015239;28;20050;-73
2023/07/26 03:08:01;;;;;;;6.57;4.60;;;11.30;99.90;;;;;;5015298;28;20368;-73
2023/07/26 03:10:27;;;;;;;5.43;4.28;;;11.30;99.90;;;;;;5013848;28;20060;-73
2023/07/26 03:12:53;;;;;;;5.28;3.80;;;11.40;99.90;;;;;;5014924;28;20049;-73
2023/07/26 03:15:19;;;;;;;5.47;4.35;;;11.30;99.90;;;;;;5014660;28;20042;-73
2023/07/26 03:17:45;;;;;;;6.05;4.30;;;11.40;99.90;;;;;;5014007;28;20049;-72
2023/07/26 03:20:11;;;;;;;5.93;4.30;;;11.40;99.90;;;;;;4997632;28;20414;-72
2023/07/26 03:22:36;;;;;;;5.30;4.18;;;11.30;99.90;;;;;;5013597;28;20447;-71
2023/07/26 03:25:03;;;;;;;6.72;3.97;;;11.30;99.90;;;;;;5014811;28;20038;-72
2023/07/26 03:27:28;;;;;;;5.68;3.85;;;11.30;99.90;;;;;;5014712;28;20041;-72
2023/07/26 03:29:54;;;;;;;6.93;4.57;;;11.30;99.90;;;;;;5014360;28;20471;-74
2023/07/26 03:32:20;;;;;;;5.13;3.90;;;11.30;99.90;;;;;;4997210;28;20058;-72
2023/07/26 03:34:47;;;;;;;5.72;4.13;;;11.30;99.90;;;;;;5014282;28;20096;-72
2023/07/26 03:37:12;;;;;;;5.57;4.15;;;11.20;99.90;;;;;;5013188;28;20371;-72
2023/07/26 03:39:38;;;;;;;5.93;4.20;;;11.20;99.90;;;;;;5013095;28;20048;-72
2023/07/26 03:42:04;;;;;;;8.32;4.40;;;11.20;99.90;;;;;;5014583;28;20046;-72
2023/07/26 03:44:30;;;;;;;5.78;3.85;;;11.20;99.90;;;;;;5014107;28;20045;-72
2023/07/26 03:46:55;;;;;;;5.38;3.78;;;11.20;99.90;;;;;;5012527;28;20046;-72
2023/07/26 03:49:21;;;;;;;5.90;3.85;;;11.20;99.90;;;;;;5013016;28;20081;-73
2023/07/26 03:51:47;;;;;;;4.43;3.58;;;11.20;99.90;;;;;;5014049;28;20462;-73
2023/07/26 03:54:12;;;;;;;6.82;3.40;;;11.20;99.90;;;;;;5014130;28;20042;-73
2023/07/26 03:56:38;;;;;;;5.10;3.70;;;11.20;99.90;;;;;;4996426;28;20053;-74
2023/07/26 03:59:04;;;;;;;5.45;3.83;;;11.20;99.90;;;;;;5013161;28;20128;-73
2023/07/26 04:01:29;;;;;;;5.47;3.75;;;11.20;99.90;;;;;;5012571;28;20042;-73
2023/07/26 04:03:55;;;;;;;4.78;3.47;;;11.20;99.90;;;;;;5013916;28;20058;-74
2023/07/26 04:06:21;;;;;;;5.10;3.45;;;11.20;99.90;;;;;;5013907;28;20120;-73
2023/07/26 04:08:46;;;;;;;5.07;3.63;;;11.20;99.90;;;;;;5014001;28;20068;-73
2023/07/26 04:11:12;;;;;;;4.80;3.55;;;11.20;99.90;;;;;;5012370;28;20045;-73
2023/07/26 04:13:38;;;;;;;4.70;3.55;;;11.20;99.90;;;;;;5013621;28;20049;-72
2023/07/26 04:16:17;;;;;;;6.40;3.72;;;11.20;99.90;;;;;;5014047;28;20049;-73
2023/07/26 04:18:43;;;;;;;4.95;3.72;;;11.20;99.90;;;;;;5012843;28;20045;-72
2023/07/26 04:21:17;;;;;;;5.10;3.60;;;11.30;99.90;;;;;;5012642;28;20049;-73
2023/07/26 04:23:44;;;;;;;4.60;3.42;;;11.30;99.90;;;;;;5012276;28;20092;-73
2023/07/26 04:26:10;;;;;;;6.90;3.75;;;11.30;99.90;;;;;;5012513;28;20165;-72
2023/07/26 04:28:36;;;;;;;4.68;3.60;;;11.40;99.90;;;;;;5013898;28;20106;-72
2023/07/26 04:31:02;;;;;;;4.78;3.67;;;11.40;99.90;;;;;;5013192;28;20038;-72
2023/07/26 04:33:28;;;;;;;4.25;3.58;;;11.50;99.90;;;;;;5013432;28;20088;-72
2023/07/26 04:35:54;;;;;;;5.72;3.28;;;11.60;99.90;;;;;;5013535;28;20077;-72
2023/07/26 04:38:20;;;;;;;5.45;3.78;;;11.60;99.90;;;;;;4995783;28;20054;-72
2023/07/26 04:40:47;;;;;;;5.03;3.42;;;11.70;99.90;;;;;;5013287;28;20044;-74
2023/07/26 04:43:19;;;;;;;4.80;3.40;;;11.80;99.90;;;;;;5012602;28;20133;-73
2023/07/26 04:45:49;;;;;;;4.30;3.15;;;11.80;99.90;;;;;;5013363;28;20111;-73
2023/07/26 04:48:16;;;;;;;5.40;3.40;;;11.90;99.90;;;;;;5013317;28;20038;-72
2023/07/26 04:50:43;;;;;;;6.30;3.22;;;11.90;99.90;;;;;;4995970;28;20049;-72
2023/07/26 04:53:09;;;;;;;6.32;3.33;;;11.90;99.90;;;;;;5013315;28;20052;-73
2023/07/26 04:55:46;;;;;;;6.15;3.30;;;11.90;99.90;;;;;;5012301;28;20038;-73
2023/07/26 04:58:12;;;;;;;5.35;3.45;;;12.00;99.90;;;;;;5013496;28;20493;-73
2023/07/26 05:00:39;;;;;;;5.00;3.13;;;12.00;99.90;;;;;;5012568;28;20048;-73
2023/07/26 05:03:05;;;;;;;6.90;3.88;;;12.00;99.90;;;;;;5013132;28;20054;-72
2023/07/26 05:05:35;;;;;;;4.88;3.42;;;12.10;99.90;;;;;;5013264;28;20045;-73
2023/07/26 05:08:01;;;;;;;6.28;3.42;;;12.20;99.90;;;;;;4995860;28;20042;-72
2023/07/26 05:10:27;;;;;;;5.15;3.05;;;12.30;99.90;;;;;;5012950;28;20042;-73
2023/07/26 05:12:53;;;;;;;4.95;3.30;;;12.30;99.90;;;;;;5013130;28;20100;-72
2023/07/26 05:15:19;;;;;;;4.32;3.22;;;12.40;99.90;;;;;;5012950;28;20038;-73
2023/07/26 05:17:45;;;;;;;4.63;3.50;;;12.40;99.90;;;;;;5013134;28;20056;-72
2023/07/26 05:20:12;;;;;;;4.22;3.13;;;12.40;99.90;;;;;;5013087;28;20038;-72
2023/07/26 05:22:37;;;;;;;5.68;3.78;;;12.40;99.90;;;;;;5012836;28;20077;-73
2023/07/26 05:25:03;;;;;;;6.15;3.42;;;12.30;99.90;;;;;;5011570;28;20081;-73
2023/07/26 05:27:29;;;;;;;5.30;3.35;;;12.30;99.90;;;;;;4995840;28;20067;-72
2023/07/26 05:29:57;;;;;;;5.25;3.72;;;12.40;99.90;;;;;;5011792;28;20057;-73
2023/07/26 05:32:23;;;;;;;6.65;3.60;;;12.40;99.90;;;;;;5012527;28;20046;-73
2023/07/26 05:34:50;;;;;;;4.70;3.42;;;12.50;99.90;;;;;;5011740;28;20050;-73
2023/07/26 05:37:16;;;;;;;4.80;3.70;;;12.60;99.90;;;;;;5012842;28;20084;-73
2023/07/26 05:39:41;;;;;;;6.18;3.65;;;12.60;99.90;;;;;;5012662;28;20084;-73
2023/07/26 05:42:07;;;;;;;6.90;3.75;;;12.70;99.90;;;;;;5015559;28;20045;-72
2023/07/26 05:44:32;;;;;;;4.95;3.20;;;12.80;99.90;;;;;;5015696;28;20049;-74
2023/07/26 05:46:58;;;;;;;5.32;3.60;;;12.80;99.90;;;;;;5015277;28;20063;-72
2023/07/26 05:49:24;;;;;;;4.10;2.60;;;12.80;99.90;;;;;;5016378;28;20041;-73
2023/07/26 05:51:49;;;;;;;3.60;2.40;;;12.80;99.90;;;;;;5015087;28;20054;-73
2023/07/26 05:54:15;;;;;;;5.40;3.45;;;12.70;99.90;;;;;;5016439;28;20057;-72
2023/07/26 05:56:41;;;;;;;4.90;3.03;;;12.70;99.90;;;;;;5015195;28;20042;-74
2023/07/26 05:59:07;;;;;;;4.22;3.00;;;12.60;99.90;;;;;;5015266;28;20415;-73
2023/07/26 06:01:33;;;;;;;5.20;3.60;;;12.60;99.90;;;;;;5015945;28;20034;-73
2023/07/26 06:03:58;;;;;;;7.07;3.65;;;12.50;99.90;;;;;;5014853;28;20129;-73
2023/07/26 06:06:24;;;;;;;4.78;3.38;;;12.40;99.90;;;;;;5016312;28;20120;-73
2023/07/26 06:08:50;;;;;;;5.03;3.70;;;12.40;99.90;;;;;;5014765;28;20041;-73
2023/07/26 06:11:16;;;;;;;5.05;3.50;;;12.40;99.90;;;;;;5016001;28;20041;-74
2023/07/26 06:13:42;;;;;;;5.40;3.90;;;12.40;99.90;;;;;;4998542;28;20128;-75
2023/07/26 06:16:08;;;;;;;5.93;3.90;;;12.40;99.90;;;;;;5015770;28;20042;-74
2023/07/26 06:18:33;;;;;;;6.43;3.97;;;12.40;99.90;;;;;;5015585;28;20045;-75
2023/07/26 06:20:59;;;;;;;6.68;3.85;;;12.50;99.90;;;;;;5016015;28;20088;-74
2023/07/26 06:23:24;;;;;;;5.47;4.15;;;12.50;99.90;;;;;;5014781;28;20463;-74
2023/07/26 06:25:50;;;;;;;6.18;3.85;;;12.60;99.90;;;;;;5016026;28;20133;-73
2023/07/26 06:28:16;;;;;;;5.68;3.88;;;12.70;99.90;;;;;;5015462;28;20041;-73
2023/07/26 06:30:41;;;;;;;5.90;3.90;;;12.80;99.90;;;;;;5015537;28;20128;-73
2023/07/26 06:33:07;;;;;;;5.53;3.97;;;12.80;99.90;;;;;;5015531;28;20379;-73
2023/07/26 06:35:33;;;;;;;4.82;3.78;;;12.80;99.90;;;;;;5014853;28;20069;-73
2023/07/26 06:37:58;;;;;;;4.90;3.88;;;12.80;99.90;;;;;;5015469;28;20100;-74
2023/07/26 06:40:24;;;;;;;9.07;4.25;;;12.80;99.90;;;;;;5014512;28;20053;-73
2023/07/26 06:42:50;;;;;;;6.03;4.40;;;12.90;99.90;;;;;;5015479;28;20426;-73
2023/07/26 06:45:16;;;;;;;5.70;4.00;;;12.90;99.90;;;;;;5015357;28;20081;-73
2023/07/26 06:47:41;;;;;;;6.53;4.03;;;13.00;99.90;;;;;;5015545;28;20038;-73
2023/07/26 06:50:07;;;;;;;6.68;4.07;;;13.20;99.90;;;;;;5013886;28;20079;-73
2023/07/26 06:52:33;;;;;;;6.10;3.85;;;13.20;99.90;;;;;;5014165;28;20390;-73
2023/07/26 06:54:59;;;;;;;6.30;4.00;;;13.30;99.90;;;;;;5014140;28;20038;-73
2023/07/26 06:57:25;;;;;;;4.78;3.70;;;13.40;99.90;;;;;;5015270;28;20372;-73
2023/07/26 06:59:50;;;;;;;6.20;3.78;;;13.40;99.90;;;;;;5014308;28;20042;-74
2023/07/26 07:02:16;;;;;;;5.40;3.80;;;13.50;99.90;;;;;;5013364;28;20402;-73
2023/07/26 07:04:42;;;;;;;4.32;3.38;;;13.50;99.90;;;;;;5014491;28;20054;-75
2023/07/26 07:07:07;;;;;;;5.93;4.00;;;13.60;99.90;;;;;;5010341;28;20042;-74
2023/07/26 07:09:33;;;;;;;6.20;4.25;;;13.60;99.90;;;;;;5011899;28;20561;-75
2023/07/26 07:11:59;;;;;;;5.32;3.80;;;13.60;99.90;;;;;;5014350;28;20046;-73
2023/07/26 07:14:24;;;;;;;5.45;3.90;;;13.60;99.90;;;;;;5014065;28;20483;-75
2023/07/26 07:16:50;;;;;;;5.93;3.78;;;13.70;99.90;;;;;;5012995;28;20483;-74
2023/07/26 07:19:16;;;;;;;7.10;3.83;;;13.70;99.90;;;;;;5006100;28;20117;-75
2023/07/26 07:21:42;;;;;;;5.82;3.80;;;13.70;99.90;;;;;;5000043;28;20096;-77
2023/07/26 07:24:07;;;;;;;5.63;4.05;;;13.70;99.90;;;;;;5007898;28;20042;-76
2023/07/26 07:26:33;;;;;;;5.72;4.00;;;13.70;99.90;;;;;;5007431;28;20176;-75
2023/07/26 07:28:59;;;;;;;6.38;3.72;;;13.70;99.90;;;;;;5014195;28;20064;-77
2023/07/26 07:31:25;;;;;;;5.85;3.78;;;13.80;99.90;;;;;;5013566;28;20034;-77
2023/07/26 07:33:51;;;;;;;6.80;3.67;;;13.80;99.90;;;;;;4996732;28;20037;-75
2023/07/26 07:36:19;;;;;;;4.13;3.35;;;13.80;99.90;;;;;;5013423;28;20365;-73
2023/07/26 07:38:45;;;;;;;4.95;3.40;;;13.80;99.90;;;;;;5011535;28;20524;-74
2023/07/26 07:41:12;;;;;;;4.72;3.47;;;13.80;99.90;;;;;;5014140;28;20040;-75
2023/07/26 07:43:38;;;;;;;5.43;3.45;;;13.80;99.90;;;;;;4996543;28;20474;-74
2023/07/26 07:46:04;;;;;;;5.50;3.78;;;13.70;99.90;;;;;;5012612;28;20049;-73
2023/07/26 07:48:30;;;;;;;5.95;4.00;;;13.70;99.90;;;;;;5013342;28;20038;-72
2023/07/26 07:50:56;;;;;;;5.20;3.63;;;13.80;99.90;;;;;;5012749;28;20049;-73
2023/07/26 07:53:23;;;;;;;5.88;3.70;;;13.70;99.90;;;;;;5012280;28;20053;-75
2023/07/26 07:55:48;;;;;;;5.90;4.18;;;13.80;99.90;;;;;;5013703;28;20045;-75
2023/07/26 07:58:14;;;;;;;5.35;3.92;;;13.70;99.90;;;;;;4996372;28;20037;-76
2023/07/26 08:00:40;;;;;;;6.35;4.53;;;13.60;99.90;;;;;;5012593;28;20091;-75
2023/07/26 08:03:06;;;;;;;5.32;4.18;;;13.60;99.90;;;;;;5012415;28;20077;-76
2023/07/26 08:05:35;;;;;;;7.20;4.68;;;13.50;99.90;;;;;;5013665;28;20080;-78
2023/07/26 08:08:01;;;;;;;7.45;3.90;;;13.40;99.90;;;;;;5011802;28;20117;-78
2023/07/26 08:10:27;;;;;;;6.75;4.10;;;13.30;99.90;;;;;;5012297;28;20128;-77
2023/07/26 08:12:53;;;;;;;5.90;4.22;;;13.10;99.90;;;;;;5013480;28;20113;-76
2023/07/26 08:15:18;;;;;;;5.60;4.05;;;12.90;99.90;;;;;;5013145;28;20038;-77
2023/07/26 08:17:44;;;;;;;4.57;3.15;;;12.80;99.90;;;;;;4980081;28;20052;-77
2023/07/26 08:20:11;;;;;;;5.13;3.20;;;12.70;99.90;;;;;;5013231;28;20053;-79
2023/07/26 08:22:38;;;;;;;5.97;3.00;;;12.60;99.90;;;;;;5012209;28;20050;-78
2023/07/26 08:25:04;;;;;;;7.00;3.25;;;12.50;99.90;;;;;;5012294;28;20045;-81
2023/07/26 08:27:30;;;;;;;4.35;2.60;;;12.40;99.90;;;;;;5013061;28;20046;-85
2023/07/26 08:29:56;;;;;;;3.85;2.85;;;12.40;99.90;;;;;;4990782;28;20046;-78
2023/07/26 08:32:22;;;;;;;3.75;2.53;;;12.40;99.90;;;;;;5009186;28;20044;-78
2023/07/26 08:34:48;;;;;;;3.97;2.90;;;12.50;99.90;;;;;;5010255;28;20104;-79
2023/07/26 08:37:13;;;;;;;3.80;2.80;;;12.50;99.90;;;;;;5011616;28;20045;-80
2023/07/26 08:39:40;;;;;;;4.93;3.45;;;12.60;99.90;;;;;;5010601;28;20139;-78
2023/07/26 08:42:05;;;;;;;5.55;3.67;;;12.70;99.90;;;;;;5012024;28;20042;-79
2023/07/26 08:44:33;;;;;;;5.80;3.58;;;12.90;99.90;;;;;;5010417;28;20590;-79
2023/07/26 08:47:00;;;;;;;6.05;4.30;;;13.00;99.90;;;;;;5011909;28;20042;-79
2023/07/26 08:49:27;;;;;;;7.18;4.47;;;13.20;99.90;;;;;;4994675;28;20045;-78
2023/07/26 08:51:54;;;;;;;6.22;3.92;;;13.30;99.90;;;;;;5010151;28;20044;-79
2023/07/26 08:54:21;;;;;;;5.03;3.58;;;13.50;99.90;;;;;;5011929;28;20117;-79
2023/07/26 08:56:48;;;;;;;5.32;3.60;;;13.50;99.90;;;;;;5011072;28;20574;-79
2023/07/26 08:59:15;;;;;;;5.97;3.92;;;13.60;99.90;;;;;;5011497;28;20056;-80
2023/07/26 09:01:41;;;;;;;5.63;3.42;;;13.70;99.90;;;;;;5008339;28;20041;-79
2023/07/26 09:04:08;;;;;;;4.85;3.67;;;13.80;99.90;;;;;;5005096;28;20438;-78
2023/07/26 09:06:41;;;;;;;3.95;3.17;;;13.90;99.90;;;;;;5011827;28;20060;-79
2023/07/26 09:09:07;;;;;;;4.05;3.10;;;14.10;99.90;;;;;;5011744;28;20481;-78
2023/07/26 09:11:33;;;;;;;4.53;3.13;;;14.20;99.90;;;;;;5010375;28;20042;-79
2023/07/26 09:14:02;;;;;;;4.60;2.67;;;14.20;99.90;;;;;;5011273;28;20403;-79
2023/07/26 09:16:30;;;;;;;5.93;3.20;;;14.40;99.90;;;;;;5014462;28;20111;-79
2023/07/26 09:19:02;;;;;;;3.70;2.50;;;14.40;99.90;;;;;;5014448;28;20053;-79
2023/07/26 09:21:31;;;;;;;2.83;2.17;;;14.50;99.90;;;;;;5015311;28;20042;-78
2023/07/26 09:23:57;;;;;;;4.88;2.00;;;14.50;99.90;;;;;;5015446;28;20054;-80
2023/07/26 09:26:40;;;;;;;3.58;2.20;;;14.50;99.90;;;;;;5015770;28;20104;-78
2023/07/26 09:29:09;;;;;;;3.35;2.10;;;14.50;99.90;;;;;;5015272;28;20104;-78
2023/07/26 09:31:35;;;;;;;3.20;1.83;;;14.70;99.90;;;;;;5014943;28;20073;-77
2023/07/26 09:34:08;;;;;;;3.95;2.20;;;15.00;99.90;;;;;;5014460;28;20046;-77
2023/07/26 09:36:44;;;;;;;3.58;1.95;;;15.20;99.90;;;;;;5015028;28;20045;-77
2023/07/26 09:39:12;;;;;;;2.80;1.50;;;15.40;99.90;;;;;;5015242;28;20165;-76
2023/07/26 09:41:38;;;;;;;3.53;1.60;;;15.60;99.90;;;;;;5015051;28;20459;-78
2023/07/26 09:44:08;;;;;;;3.17;1.50;;;15.70;99.90;;;;;;5014079;28;20050;-77
2023/07/26 09:46:54;;;;;;;2.90;1.60;;;15.70;99.90;;;;;;5015217;28;20050;-75
2023/07/26 09:49:27;;;;;;;2.25;1.50;;;15.70;99.90;;;;;;5015138;28;20054;-76
2023/07/26 09:51:57;;;;;;;2.97;1.60;;;15.80;99.90;;;;;;5013422;28;20042;-77
2023/07/26 09:54:26;;;;;;;3.10;2.00;;;15.70;99.90;;;;;;5014117;28;20042;-77
2023/07/26 09:56:54;;;;;;;3.60;1.70;;;15.90;99.90;;;;;;4997899;28;20327;-78
2023/07/26 09:59:23;;;;;;;3.03;1.90;;;16.20;99.90;;;;;;5013302;28;20276;-76
2023/07/26 10:01:51;;;;;;;3.05;1.98;;;16.30;99.90;;;;;;5011440;28;20467;-76
2023/07/26 10:04:40;;;;;;;3.95;2.30;;;16.30;99.90;;;;;;5013033;28;20081;-77
2023/07/26 10:07:11;;;;;;;3.15;1.73;;;16.50;99.90;;;;;;5009606;28;20138;-76
2023/07/26 10:09:44;;;;;;;3.63;2.10;;;16.50;99.90;;;;;;5014070;28;20046;-80
2023/07/26 10:12:10;;;;;;;4.55;2.10;;;16.40;99.90;;;;;;5014449;28;20045;-74
2023/07/26 10:14:36;;;;;;;3.30;1.88;;;16.40;99.90;;;;;;5014031;28;20042;-75
2023/07/26 10:17:03;;;;;;;3.42;2.42;;;16.50;99.90;;;;;;5014681;28;20041;-74
2023/07/26 10:19:30;;;;;;;3.10;1.80;;;16.60;99.90;;;;;;4996897;28;20082;-74
2023/07/26 10:21:59;;;;;;;2.70;1.80;;;17.00;99.90;;;;;;5013688;28;20049;-73
2023/07/26 10:24:26;;;;;;;2.95;1.95;;;17.30;99.90;;;;;;5014358;28;20518;-75
2023/07/26 10:26:55;;;;;;;3.20;1.95;;;17.40;99.90;;;;;;4996861;28;20042;-74
2023/07/26 10:29:22;;;;;;;3.47;2.20;;;17.30;99.90;;;;;;5013358;28;20145;-73
2023/07/26 10:32:03;;;;;;;3.05;1.75;;;17.20;99.90;;;;;;5012430;28;20040;-73
2023/07/26 10:34:29;;;;;;;3.25;2.13;;;17.30;99.90;;;;;;5013968;28;20491;-75
2023/07/26 10:36:55;;;;;;;3.03;2.08;;;17.40;99.90;;;;;;5012281;28;20117;-74
2023/07/26 10:39:33;;;;;;;4.40;2.00;;;17.40;99.90;;;;;;5014067;28;20076;-78
2023/07/26 10:41:59;;;;;;;3.60;1.98;;;17.30;99.90;;;;;;5013662;28;20045;-79
2023/07/26 10:44:25;;;;;;;4.13;2.13;;;17.40;99.90;;;;;;5013071;28;20048;-77
2023/07/26 10:47:01;;;;;;;3.83;2.15;;;17.60;99.90;;;;;;5012196;28;20045;-78
2023/07/26 10:49:29;;;;;;;3.47;1.90;;;17.60;99.90;;;;;;5012847;28;20049;-79
2023/07/26 10:51:58;;;;;;;3.25;1.77;;;17.60;99.90;;;;;;5012269;28;20046;-78
2023/07/26 10:54:39;;;;;;;2.88;1.73;;;17.60;99.90;;;;;;5012901;28;20050;-78
2023/07/26 10:57:26;;;;;;;4.13;1.98;;;17.80;99.90;;;;;;5013870;28;20042;-78
2023/07/26 11:00:01;;;;;;;2.78;2.00;;;17.90;99.90;;;;;;5012640;28;20057;-79
2023/07/26 11:02:46;;;;;;;3.60;2.00;;;17.90;99.90;;;;;;5004777;28;20125;-79
2023/07/26 11:05:19;;;;;;;4.07;2.35;;;17.70;99.90;;;;;;5006914;28;20046;-76
2023/07/26 11:07:53;;;;;;;3.05;2.00;;;17.60;99.90;;;;;;5001224;28;20141;-77
2023/07/26 11:10:24;;;;;;;3.03;1.48;;;17.80;99.90;;;;;;5002483;28;20350;-78
2023/07/26 11:13:32;;;;;;;2.35;1.50;;;18.10;99.90;;;;;;5008401;28;20257;-76
2023/07/26 11:16:01;;;;;;;3.15;1.60;;;18.20;99.90;;;;;;5007238;28;20125;-77
2023/07/26 11:18:27;;;;;;;2.47;1.40;;;18.40;99.90;;;;;;5012157;28;20063;-78
2023/07/26 11:20:54;;;;;;;3.20;1.60;;;18.60;99.90;;;;;;5013181;28;20037;-77
2023/07/26 11:23:26;;;;;;;2.60;1.40;;;18.70;99.90;;;;;;5012548;28;20050;-76
2023/07/26 11:25:54;;;;;;;3.85;1.70;;;18.70;99.90;;;;;;5011780;28;20050;-78
2023/07/26 11:28:20;;;;;;;3.33;1.60;;;18.60;99.90;;;;;;5013588;28;20050;-76
2023/07/26 11:30:51;;;;;;;3.22;1.75;;;18.40;99.90;;;;;;5012526;28;20038;-78
2023/07/26 11:33:39;;;;;;;2.63;1.60;;;18.20;99.90;;;;;;5013172;28;20046;-76
2023/07/26 11:36:18;;;;;;;2.83;1.45;;;18.00;99.90;;;;;;5013435;28;20103;-78
2023/07/26 11:38:44;;;;;;;2.72;1.35;;;17.90;99.90;;;;;;5011177;28;20049;-77
2023/07/26 11:41:20;;;;;;;2.92;1.50;;;17.60;99.90;;;;;;5011866;28;20047;-76
2023/07/26 11:43:47;;;;;;;3.03;1.45;;;17.40;99.90;;;;;;5012708;28;20501;-75
2023/07/26 11:46:13;;;;;;;2.70;1.42;;;17.20;99.90;;;;;;5012054;28;20061;-76
2023/07/26 11:48:43;;;;;;;4.07;2.00;;;16.90;99.90;;;;;;4994234;28;20049;-78
2023/07/26 11:51:09;;;;;;;2.67;1.55;;;16.30;99.90;;;;;;5011556;28;20049;-77
2023/07/26 11:53:37;;;;;;;2.22;1.48;;;15.90;99.90;;;;;;5011834;28;20374;-76
2023/07/26 11:56:04;;;;;;;2.92;1.20;;;15.60;99.90;;;;;;5011207;28;20046;-76
2023/07/26 11:58:33;;;;;;;2.05;1.00;;;15.50;99.90;;;;;;5012323;28;20049;-74
2023/07/26 12:01:00;;;;;;;1.98;1.00;;;15.70;99.90;;;;;;5001317;28;20431;-74
2023/07/26 12:03:27;;;;;;;1.70;1.00;;;16.00;99.90;;;;;;5003230;28;20057;-75
2023/07/26 12:05:53;;;;;;;1.20;0.70;;;16.40;99.90;;;;;;4991084;28;20050;-74
2023/07/26 12:08:20;;;;;;;1.92;1.00;;;16.80;99.90;;;;;;4992842;28;20169;-74
2023/07/26 12:10:47;;;;;;;2.10;1.00;;;17.10;99.90;;;;;;4999658;28;20142;-76
2023/07/26 12:13:23;;;;;;;2.00;0.90;;;17.30;99.90;;;;;;4992713;28;20533;-73
2023/07/26 12:15:57;;;;;;;2.00;0.90;;;17.50;99.90;;;;;;5006964;28;20050;-73
2023/07/26 12:18:24;;;;;;;1.88;0.93;;;17.70;99.90;;;;;;5012176;28;20116;-77
2023/07/26 12:21:04;;;;;;;2.10;1.10;;;17.80;99.90;;;;;;5011293;28;20061;-73
2023/07/26 12:23:49;;;;;;;2.33;1.02;;;18.10;99.90;;;;;;5011917;28;20037;-74
2023/07/26 12:26:15;;;;;;;2.60;1.20;;;18.30;99.90;;;;;;5012099;28;20383;-72
2023/07/26 12:28:43;;;;;;;2.00;1.30;;;18.30;99.90;;;;;;5012153;28;20038;-76
2023/07/26 12:31:20;;;;;;;1.85;1.10;;;18.40;99.90;;;;;;5009991;28;20269;-76
2023/07/26 12:33:57;;;;;;;3.03;1.20;;;18.50;99.90;;;;;;5010402;28;20041;-76
2023/07/26 12:36:31;;;;;;;2.25;1.10;;;18.70;99.90;;;;;;5012295;28;20049;-74
2023/07/26 12:38:59;;;;;;;1.90;1.20;;;18.80;99.90;;;;;;5010659;28;20112;-77
2023/07/26 12:41:26;;;;;;;2.20;1.10;;;18.80;99.90;;;;;;5011262;28;20049;-71
2023/07/26 12:43:56;;;;;;;3.20;1.10;;;18.70;99.90;;;;;;5012069;28;20037;-73
2023/07/26 12:46:22;;;;;;;2.17;1.00;;;18.60;99.90;;;;;;5010616;28;20070;-71
2023/07/26 12:48:50;;;;;;;2.38;1.25;;;18.60;99.90;;;;;;5010103;28;20038;-74
2023/07/26 12:51:15;;;;;;;2.65;1.10;;;18.70;99.90;;;;;;5011404;28;20038;-74